Airfield :
LOGIN :

Register | Disclaimer

   EN    FR    IT 

 










Legend :    VFR   Marginal VFR   IFR   Intensive IFR   Very Intensive IFR
Visi :
Ceiling :
>= 8 km
>= 3000ft
5 to 8 km
1000 to 3000 ft
1500m to 5 km
500 to 1000 ft
800 to 1500m
200 to 500 ft
< 800m
< 200 ft
Symbols :   Thunderstorms  Fog  Heavy snow  Heavy precipitations  Wind > 20 kt
SIGMETs :     Misc.  Thunderstorms  Icing  Turbulence  Mountain Waves  Volcanic Ashes






- Airport Elevation : 499 ft
- IATA code : TLS


LFBO - Toulouse / Blagnac

CURRENT METAR :
  • 260300Z AUTO 21005KT 1200 0900 R14R/1200D R32L/1500N R14L/1800U R32R/1500N BCFG VV/// 07/07 Q1018 TEMPO 0500 FG

EXPIRED METARs :
  • 260230Z AUTO 19005KT 1100 0700 R14R/1300D R32L/1000D R14L/1500D R32R/0800D BCFG VV/// 08/07 Q1018 TEMPO 0500 FG
  • 260200Z AUTO 20004KT 1900 1000 R14R/1200U R32L/P2000 R14L/2000D R32R/2000D BR VV/// 08/08 Q1017 TEMPO BKN006 BECMG 9999 NSW
  • 260130Z AUTO 19005KT 9000 FEW003 OVC009 08/07 Q1017
  • 260100Z AUTO 16005KT 9999 OVC008 09/08 Q1017 NOSIG
  • 260030Z AUTO 18004KT 9999 OVC009 09/08 Q1017 NOSIG

TAF AMD TAF LFBO
Valid from the 26 at 02:00 until the 27 at 06:00 UTC


260207Z 2602/2706 23005KT 9999 BKN007
TEMPO 2602/2606 2000 BKN002
PROB40
TEMPO 2602/2606 0500 FG VV///
BECMG 2604/2606 27007KT
PROB40
TEMPO 2606/2609 4500 -RA
BECMG 2609/2611 BKN040
PROB40
TEMPO 2609/2614 -RA SCT010
BECMG 2615/2617 CAVOK
BECMG 2617/2619 VRB02KT
BECMG 2622/2624 13004KT 2000 BR OVC002
TEMPO 2623/2706 0600 FG VV///
ATIS : +33 5 62 74 66 36



MET'MAP, your aeronautical weather chart ! - Copyright ORBIFLY December 2007 - Disclaimer

ORBIFLY MET'MAP TEAM :

Programming & Development : Alexandra Zaïnal
Concept & original design : Baudouin d'Aumeries
Assistance for programming : Marc-Olivier Méhu
Technical & hardware support : Manuel Goepfert

Contact : metmap@orbifly.com




SOURCES & CREDITS :

   NOAA